Time;durP1;ratioP1;P1;durP2;ratioP2;P2;SDS_P1;SDS_P2;PMS_P1;PMS_P2;Temp;Humidity;BMP_temperature;BMP_pressure;BME280_temperature;BME280_humidity;BME280_pressure;Samples;Min_cycle;Max_cycle;Signal;HPM_P1;HPM_P2
2022/10/13 00:00:47;;;;;;;17.90;7.90;;;14.90;90.00;;;;;;5054783;28;20423;-72
2022/10/13 00:03:13;;;;;;;16.35;8.07;;;14.90;90.00;;;;;;5055431;28;20052;-72
2022/10/13 00:05:44;;;;;;;13.13;7.20;;;14.90;90.00;;;;;;5055012;28;20021;-72
2022/10/13 00:08:10;;;;;;;17.70;7.60;;;14.90;90.00;;;;;;5055270;28;20029;-72
2022/10/13 00:10:37;;;;;;;12.82;7.55;;;14.90;90.00;;;;;;5054834;28;20139;-72
2022/10/13 00:13:03;;;;;;;12.57;7.10;;;14.90;90.00;;;;;;5054923;28;20025;-72
2022/10/13 00:15:29;;;;;;;16.65;7.88;;;14.90;90.00;;;;;;5055055;28;20025;-72
2022/10/13 00:17:55;;;;;;;16.85;7.78;;;14.90;90.00;;;;;;5055143;28;20513;-72
2022/10/13 00:20:20;;;;;;;11.35;6.93;;;14.90;90.00;;;;;;5054829;28;20405;-72
2022/10/13 00:22:46;;;;;;;14.90;7.50;;;14.90;90.10;;;;;;5054576;28;20025;-72
2022/10/13 00:25:12;;;;;;;14.68;8.13;;;14.90;90.10;;;;;;5054597;28;20037;-72
2022/10/13 00:27:37;;;;;;;13.20;7.47;;;14.90;90.20;;;;;;5054582;28;20052;-72
2022/10/13 00:30:04;;;;;;;17.63;7.65;;;14.90;90.20;;;;;;5057696;28;20024;-72
2022/10/13 00:32:29;;;;;;;14.80;7.75;;;14.90;90.30;;;;;;5054842;28;20025;-72
2022/10/13 00:34:56;;;;;;;16.38;8.05;;;14.90;90.30;;;;;;5054356;28;20495;-72
2022/10/13 00:37:22;;;;;;;13.32;7.82;;;14.90;90.40;;;;;;5054480;28;20032;-72
2022/10/13 00:39:48;;;;;;;19.92;8.05;;;14.90;90.40;;;;;;5054430;28;20116;-72
2022/10/13 00:42:13;;;;;;;12.50;7.45;;;14.90;90.50;;;;;;5054377;28;20065;-72
2022/10/13 00:45:02;;;;;;;17.13;8.65;;;14.90;90.50;;;;;;5054029;28;20498;-72
2022/10/13 00:47:35;;;;;;;15.30;8.07;;;14.80;90.70;;;;;;5054429;28;20068;-71
2022/10/13 00:50:01;;;;;;;16.08;7.78;;;14.80;90.70;;;;;;5054614;28;20392;-72
2022/10/13 00:52:28;;;;;;;12.82;7.53;;;14.80;90.70;;;;;;5054431;28;20104;-72
2022/10/13 00:54:54;;;;;;;16.13;8.05;;;14.90;90.70;;;;;;5053982;28;20503;-72
2022/10/13 00:57:21;;;;;;;13.98;8.30;;;14.90;90.80;;;;;;5054067;28;20025;-73
2022/10/13 00:59:47;;;;;;;13.63;7.40;;;14.90;90.80;;;;;;5053953;28;20116;-72
2022/10/13 01:02:13;;;;;;;13.85;7.60;;;14.90;90.80;;;;;;5054118;28;20033;-72
2022/10/13 01:04:44;;;;;;;14.40;8.15;;;14.90;90.80;;;;;;5054051;28;20025;-72
2022/10/13 01:07:10;;;;;;;13.45;7.53;;;15.00;90.90;;;;;;5053859;28;20025;-72
2022/10/13 01:09:41;;;;;;;17.98;7.70;;;14.90;90.90;;;;;;5053799;28;20024;-72
2022/10/13 01:12:39;;;;;;;13.55;8.07;;;15.00;91.00;;;;;;5053804;28;20078;-72
2022/10/13 01:15:23;;;;;;;13.35;7.55;;;15.00;91.10;;;;;;5053794;28;20017;-72
2022/10/13 01:18:27;;;;;;;13.38;7.88;;;15.00;91.10;;;;;;5053693;28;20100;-72
2022/10/13 01:20:58;;;;;;;;;;;15.00;91.20;;;;;;5054184;28;20043;-72
2022/10/13 01:23:42;;;;;;;14.13;7.45;;;15.00;91.20;;;;;;5053877;28;19999;-72
2022/10/13 01:26:41;;;;;;;13.05;7.93;;;15.00;91.10;;;;;;5055762;28;20364;-72
2022/10/13 01:29:38;;;;;;;13.10;7.03;;;15.00;91.20;;;;;;5053754;28;20037;-72
2022/10/13 01:32:15;;;;;;;11.02;7.45;;;15.00;91.30;;;;;;5053826;28;20025;-72
2022/10/13 01:34:52;;;;;;;12.18;7.80;;;15.00;91.30;;;;;;5053174;28;20100;-71
2022/10/13 01:37:41;;;;;;;13.73;8.35;;;15.00;91.40;;;;;;5053334;28;20036;-71
2022/10/13 01:40:25;;;;;;;12.13;8.07;;;15.00;91.50;;;;;;5053444;28;20028;-71
2022/10/13 01:43:15;;;;;;;16.15;8.50;;;15.00;91.50;;;;;;5053519;28;20369;-72
2022/10/13 01:45:59;;;;;;;12.57;7.75;;;15.00;91.60;;;;;;5053499;28;20029;-72
2022/10/13 01:48:26;;;;;;;16.83;8.13;;;15.00;91.60;;;;;;5053411;28;20028;-71
2022/10/13 01:50:54;;;;;;;18.17;8.82;;;15.00;91.70;;;;;;5053169;28;20064;-71
2022/10/13 01:53:21;;;;;;;17.10;8.55;;;15.00;91.70;;;;;;5053370;28;20057;-72
2022/10/13 01:55:52;;;;;;;16.45;7.82;;;15.00;91.70;;;;;;5053459;28;20048;-72
2022/10/13 01:58:18;;;;;;;13.57;8.60;;;15.00;91.70;;;;;;5053350;28;20036;-71
2022/10/13 02:00:58;;;;;;;15.60;8.52;;;15.00;91.70;;;;;;5053099;28;20040;-72
2022/10/13 02:03:44;;;;;;;13.27;8.40;;;15.00;91.70;;;;;;5053343;28;20028;-72
2022/10/13 02:06:36;;;;;;;14.57;8.43;;;15.00;91.70;;;;;;5053299;28;20060;-72
2022/10/13 02:09:04;;;;;;;13.80;8.57;;;14.90;91.80;;;;;;5053348;28;20059;-72
2022/10/13 02:11:29;;;;;;;15.70;8.60;;;15.00;91.80;;;;;;5053600;28;20346;-72
2022/10/13 02:13:58;;;;;;;16.45;8.50;;;14.90;91.90;;;;;;5057041;28;20032;-72
2022/10/13 02:16:27;;;;;;;11.60;7.43;;;15.00;92.20;;;;;;5057333;28;20400;-72
2022/10/13 02:18:55;;;;;;;14.30;8.63;;;14.90;92.00;;;;;;5057238;28;20063;-71
2022/10/13 02:21:20;;;;;;;14.52;9.10;;;15.00;92.00;;;;;;5058293;28;20034;-70
2022/10/13 02:23:46;;;;;;;15.63;8.48;;;14.90;92.00;;;;;;5059572;28;20369;-72
2022/10/13 02:26:12;;;;;;;14.50;8.02;;;15.00;92.10;;;;;;5056907;28;20025;-72
2022/10/13 02:28:38;;;;;;;11.80;8.68;;;14.90;92.10;;;;;;5056649;28;20048;-72
2022/10/13 02:31:06;;;;;;;15.20;8.27;;;14.90;92.20;;;;;;5057041;28;20028;-72
2022/10/13 02:33:32;;;;;;;14.93;8.63;;;14.90;92.20;;;;;;5056764;28;20036;-72
2022/10/13 02:35:58;;;;;;;16.20;8.15;;;15.00;92.20;;;;;;5056668;28;20047;-72
2022/10/13 02:38:24;;;;;;;12.25;8.07;;;15.00;92.20;;;;;;5056883;28;20025;-72
2022/10/13 02:40:50;;;;;;;13.07;8.73;;;15.00;92.20;;;;;;5056584;28;20495;-72
2022/10/13 02:43:18;;;;;;;14.20;8.40;;;15.00;92.20;;;;;;5056596;28;20025;-72
2022/10/13 02:45:44;;;;;;;14.68;8.02;;;15.00;92.30;;;;;;5056840;28;20057;-72
2022/10/13 02:48:09;;;;;;;11.48;7.65;;;15.00;92.30;;;;;;5056861;28;20134;-72
2022/10/13 02:50:35;;;;;;;11.30;8.00;;;15.00;92.30;;;;;;5056168;28;20075;-72
2022/10/13 02:53:01;;;;;;;15.35;9.88;;;15.00;92.40;;;;;;5056728;28;20108;-73
2022/10/13 02:55:26;;;;;;;15.35;9.43;;;15.00;92.50;;;;;;5056657;28;20527;-72
2022/10/13 02:57:55;;;;;;;16.08;8.65;;;14.90;92.70;;;;;;5056095;28;20067;-72
2022/10/13 03:00:21;;;;;;;17.98;9.23;;;14.90;92.80;;;;;;5056227;28;20033;-72
2022/10/13 03:02:47;;;;;;;14.25;7.90;;;14.90;92.80;;;;;;5056305;28;20025;-72
2022/10/13 03:05:12;;;;;;;14.43;8.43;;;14.80;92.70;;;;;;5056167;28;20078;-72
2022/10/13 03:07:38;;;;;;;11.93;7.97;;;14.90;92.70;;;;;;5056265;28;20057;-72
2022/10/13 03:10:04;;;;;;;15.15;8.40;;;14.90;92.70;;;;;;5056059;28;20021;-72
2022/10/13 03:12:30;;;;;;;18.23;9.15;;;14.90;92.70;;;;;;5056189;28;20030;-72
2022/10/13 03:14:56;;;;;;;18.45;9.45;;;14.90;92.70;;;;;;5056461;28;20021;-73
2022/10/13 03:17:21;;;;;;;14.98;9.13;;;14.80;92.90;;;;;;5056025;28;20461;-70
2022/10/13 03:19:56;;;;;;;13.07;8.48;;;14.80;93.00;;;;;;5059358;28;20044;-71
2022/10/13 03:22:22;;;;;;;15.27;8.55;;;14.80;93.00;;;;;;5056269;28;20096;-71
2022/10/13 03:24:47;;;;;;;17.85;8.65;;;14.80;93.00;;;;;;5055862;28;20438;-72
2022/10/13 03:27:16;;;;;;;14.75;8.75;;;14.90;93.10;;;;;;5055521;28;20052;-72
2022/10/13 03:29:41;;;;;;;14.13;8.88;;;14.80;93.10;;;;;;5055684;28;20379;-71
2022/10/13 03:32:07;;;;;;;14.25;8.50;;;14.80;93.10;;;;;;5055772;28;20112;-72
2022/10/13 03:34:34;;;;;;;12.60;8.45;;;14.80;93.20;;;;;;5055865;28;20045;-72
2022/10/13 03:36:59;;;;;;;14.82;8.07;;;14.80;93.20;;;;;;5055541;28;20460;-72
2022/10/13 03:39:25;;;;;;;20.40;8.43;;;14.80;93.20;;;;;;5055608;28;20059;-72
2022/10/13 03:41:51;;;;;;;12.38;7.65;;;14.80;93.20;;;;;;5055732;28;20059;-72
2022/10/13 03:44:16;;;;;;;13.48;7.93;;;14.80;93.30;;;;;;5055658;28;20028;-72
2022/10/13 03:46:42;;;;;;;12.70;7.82;;;14.80;93.30;;;;;;5055140;28;20480;-72
2022/10/13 03:49:10;;;;;;;14.95;8.40;;;14.80;93.30;;;;;;5055444;28;20017;-72
2022/10/13 03:51:35;;;;;;;17.83;9.15;;;14.90;93.30;;;;;;5055590;28;20175;-72
2022/10/13 03:54:01;;;;;;;17.05;8.93;;;14.80;93.40;;;;;;5055125;28;20104;-72
2022/10/13 03:56:32;;;;;;;17.52;9.30;;;14.80;93.50;;;;;;5055561;28;20029;-72
2022/10/13 03:58:59;;;;;;;17.27;8.52;;;14.70;93.60;;;;;;5055698;28;20057;-72
2022/10/13 04:01:28;;;;;;;19.42;9.43;;;14.70;93.60;;;;;;5055241;28;20060;-73
2022/10/13 04:03:54;;;;;;;22.70;10.00;;;14.60;93.70;;;;;;5055158;28;20029;-73
2022/10/13 04:06:21;;;;;;;18.05;8.75;;;14.60;93.80;;;;;;5055310;28;20025;-72
2022/10/13 04:08:47;;;;;;;16.77;9.25;;;14.60;93.90;;;;;;5054812;28;20032;-73
2022/10/13 04:11:14;;;;;;;17.33;8.90;;;14.60;93.90;;;;;;5054770;28;20041;-73
2022/10/13 04:13:40;;;;;;;17.73;9.45;;;14.60;94.00;;;;;;5055813;28;20029;-71
2022/10/13 04:16:11;;;;;;;16.65;8.80;;;14.60;94.00;;;;;;5057716;28;20049;-72
2022/10/13 04:18:37;;;;;;;17.70;9.20;;;14.60;94.00;;;;;;5055097;28;20029;-72
2022/10/13 04:21:13;;;;;;;21.85;9.98;;;14.60;94.00;;;;;;5055132;28;20610;-73
2022/10/13 04:23:39;;;;;;;15.90;9.90;;;14.60;94.20;;;;;;5054848;28;20105;-72
2022/10/13 04:26:05;;;;;;;16.40;8.80;;;14.50;94.30;;;;;;5054966;28;20104;-72
2022/10/13 04:28:34;;;;;;;20.67;9.10;;;14.50;94.40;;;;;;5054624;28;20094;-73
2022/10/13 04:31:01;;;;;;;17.80;9.63;;;14.40;94.50;;;;;;5054621;28;20494;-73
2022/10/13 04:33:27;;;;;;;18.80;9.93;;;14.40;94.60;;;;;;5054567;28;20025;-73
2022/10/13 04:35:53;;;;;;;21.98;10.43;;;14.40;94.80;;;;;;5054183;28;20036;-72
2022/10/13 04:38:19;;;;;;;16.92;9.63;;;14.40;94.90;;;;;;5054420;28;20021;-71
2022/10/13 04:40:44;;;;;;;18.35;8.93;;;14.30;94.90;;;;;;5054419;28;20457;-72
2022/10/13 04:43:10;;;;;;;15.73;9.23;;;14.40;94.90;;;;;;5054571;28;20090;-72
2022/10/13 04:45:35;;;;;;;16.35;8.57;;;14.40;94.90;;;;;;5054371;28;20151;-72
2022/10/13 04:48:01;;;;;;;15.80;9.60;;;14.40;95.00;;;;;;5054274;28;20044;-72
2022/10/13 04:50:29;;;;;;;21.35;10.20;;;14.40;95.10;;;;;;5054335;28;20108;-72
2022/10/13 04:52:55;;;;;;;13.75;8.63;;;14.40;95.10;;;;;;5054185;28;20028;-72
2022/10/13 04:55:21;;;;;;;20.00;9.57;;;14.40;95.10;;;;;;5053991;28;20025;-72
2022/10/13 04:57:46;;;;;;;15.38;9.15;;;14.40;95.10;;;;;;5054260;28;20029;-71
2022/10/13 05:00:16;;;;;;;20.40;10.63;;;14.40;95.10;;;;;;5053890;28;20393;-71
2022/10/13 05:02:41;;;;;;;15.23;9.27;;;14.40;95.20;;;;;;5054052;28;20025;-72
2022/10/13 05:05:07;;;;;;;17.42;9.10;;;14.40;95.20;;;;;;5053753;28;20069;-71
2022/10/13 05:07:33;;;;;;;16.75;9.00;;;14.40;95.20;;;;;;5053838;28;20029;-71
2022/10/13 05:09:58;;;;;;;17.95;10.60;;;14.50;95.20;;;;;;5054066;28;20021;-69
2022/10/13 05:12:24;;;;;;;16.42;9.60;;;14.40;95.30;;;;;;5057860;28;20025;-70
2022/10/13 05:14:49;;;;;;;13.95;9.15;;;14.40;95.30;;;;;;5056711;28;20067;-73
2022/10/13 05:17:15;;;;;;;13.43;8.43;;;14.50;95.40;;;;;;5053962;28;20103;-71
2022/10/13 05:19:41;;;;;;;16.17;8.73;;;14.50;95.30;;;;;;5053609;28;20052;-71
2022/10/13 05:22:06;;;;;;;17.52;9.18;;;14.50;95.30;;;;;;5053782;28;20055;-71
2022/10/13 05:24:35;;;;;;;16.40;9.52;;;14.50;95.30;;;;;;5053808;28;20369;-71
2022/10/13 05:27:19;;;;;;;16.10;9.35;;;14.60;95.30;;;;;;5053412;28;20048;-71
2022/10/13 05:29:44;;;;;;;16.73;8.85;;;14.60;95.30;;;;;;5053538;28;20029;-72
2022/10/13 05:32:13;;;;;;;16.05;9.27;;;14.50;95.30;;;;;;5053325;28;20024;-71
2022/10/13 05:34:38;;;;;;;15.63;9.13;;;14.50;95.40;;;;;;5053378;28;20017;-71
2022/10/13 05:37:04;;;;;;;17.67;9.70;;;14.50;95.40;;;;;;5053209;28;20025;-72
2022/10/13 05:39:30;;;;;;;14.60;9.40;;;14.50;95.50;;;;;;5052910;28;20028;-72
2022/10/13 05:41:55;;;;;;;21.45;9.73;;;14.50;95.50;;;;;;5053225;28;20021;-71
2022/10/13 05:44:21;;;;;;;21.83;10.05;;;14.50;95.70;;;;;;5053271;28;20083;-71
2022/10/13 05:46:47;;;;;;;16.75;9.43;;;14.40;95.70;;;;;;5052124;28;20494;-71
2022/10/13 05:49:12;;;;;;;14.88;8.68;;;14.30;95.80;;;;;;5052971;28;20021;-73
2022/10/13 05:51:43;;;;;;;18.17;9.35;;;14.30;95.90;;;;;;5053126;28;20033;-71
2022/10/13 05:54:19;;;;;;;15.23;8.30;;;14.30;95.90;;;;;;5053203;28;20068;-71
2022/10/13 05:57:07;;;;;;;18.42;9.68;;;14.30;96.00;;;;;;5053209;28;20025;-72
2022/10/13 05:59:38;;;;;;;16.00;9.38;;;14.30;95.90;;;;;;5049803;28;20119;-72
2022/10/13 06:02:07;;;;;;;17.85;9.35;;;14.40;95.90;;;;;;5042105;28;20063;-75
2022/10/13 06:04:43;;;;;;;19.05;9.30;;;14.40;95.90;;;;;;5030762;28;20201;-74
2022/10/13 06:07:09;;;;;;;16.85;8.75;;;14.40;95.90;;;;;;5046980;28;20029;-72
2022/10/13 06:09:39;;;;;;;20.55;9.18;;;14.40;95.90;;;;;;5047663;28;20393;-73
2022/10/13 06:12:09;;;;;;;15.35;8.43;;;14.40;95.90;;;;;;5048867;28;20029;-73
2022/10/13 06:14:35;;;;;;;16.95;9.57;;;14.40;95.90;;;;;;5042520;28;20538;-74
2022/10/13 06:17:00;;;;;;;17.27;9.65;;;14.50;96.00;;;;;;5032054;28;20121;-73
2022/10/13 06:19:29;;;;;;;21.55;10.25;;;14.50;96.00;;;;;;5046006;28;20032;-74
2022/10/13 06:21:54;;;;;;;17.48;9.95;;;14.40;96.40;;;;;;5034861;28;20033;-75
2022/10/13 06:24:20;;;;;;;18.67;10.75;;;14.40;96.60;;;;;;5033649;28;20480;-74
2022/10/13 06:26:45;;;;;;;19.25;10.43;;;14.40;96.60;;;;;;5037884;28;20116;-75
2022/10/13 06:29:11;;;;;;;18.45;10.00;;;14.40;96.70;;;;;;5032764;28;20037;-75
2022/10/13 06:31:37;;;;;;;18.65;9.63;;;14.40;96.70;;;;;;5031578;28;20516;-73
2022/10/13 06:34:02;;;;;;;12.55;8.13;;;14.50;96.70;;;;;;5032896;28;20052;-75
2022/10/13 06:36:28;;;;;;;15.98;8.93;;;14.50;96.70;;;;;;5032140;28;20071;-74
2022/10/13 06:38:53;;;;;;;15.57;9.00;;;14.60;96.60;;;;;;5032707;28;20037;-73
2022/10/13 06:41:19;;;;;;;14.30;8.55;;;14.60;96.50;;;;;;5032729;28;20500;-73
2022/10/13 06:43:45;;;;;;;17.73;9.45;;;14.60;96.40;;;;;;5032849;28;20038;-74
2022/10/13 06:46:11;;;;;;;15.15;9.20;;;14.60;96.30;;;;;;5032607;28;20436;-75
2022/10/13 06:48:37;;;;;;;16.88;9.35;;;14.60;96.30;;;;;;5032940;28;20028;-72
2022/10/13 06:51:04;;;;;;;19.48;10.15;;;14.60;96.30;;;;;;5031051;28;20030;-72
2022/10/13 06:53:30;;;;;;;20.08;10.07;;;14.60;96.30;;;;;;5031828;28;20021;-72
2022/10/13 06:56:00;;;;;;;15.93;9.95;;;14.60;96.50;;;;;;5032815;28;20025;-73
2022/10/13 06:58:26;;;;;;;17.75;9.77;;;14.60;96.50;;;;;;5034555;28;20026;-73
2022/10/13 07:00:52;;;;;;;16.70;9.00;;;14.60;96.60;;;;;;5036769;28;20056;-72
2022/10/13 07:03:18;;;;;;;19.05;9.88;;;14.60;96.50;;;;;;5037812;28;20030;-72
2022/10/13 07:05:43;;;;;;;17.95;9.30;;;14.70;96.50;;;;;;5040097;28;20057;-73
2022/10/13 07:08:09;;;;;;;16.80;9.15;;;14.60;96.50;;;;;;5036649;28;20103;-71
2022/10/13 07:10:37;;;;;;;14.63;9.32;;;14.60;96.60;;;;;;5036349;28;20544;-73
2022/10/13 07:13:03;;;;;;;19.08;9.10;;;14.70;96.50;;;;;;5037063;28;20025;-73
2022/10/13 07:15:28;;;;;;;20.10;9.88;;;14.70;96.60;;;;;;5047313;28;20569;-74
2022/10/13 07:17:54;;;;;;;18.50;9.25;;;14.70;96.60;;;;;;5036151;28;20377;-72
2022/10/13 07:20:21;;;;;;;15.57;9.55;;;14.70;96.60;;;;;;5035984;28;20045;-72
2022/10/13 07:22:46;;;;;;;21.25;10.10;;;14.70;96.70;;;;;;5036791;28;20034;-73
2022/10/13 07:25:13;;;;;;;14.10;9.38;;;14.70;96.70;;;;;;5035526;28;20032;-73
2022/10/13 07:27:39;;;;;;;18.77;10.43;;;14.70;96.60;;;;;;5036182;28;20412;-72
2022/10/13 07:30:07;;;;;;;17.88;10.32;;;14.70;96.70;;;;;;5038167;28;20022;-73
2022/10/13 07:32:34;;;;;;;17.65;10.35;;;14.70;96.80;;;;;;5034762;28;20081;-73
2022/10/13 07:35:03;;;;;;;18.10;9.95;;;14.70;96.80;;;;;;5034605;28;20175;-73
2022/10/13 07:37:30;;;;;;;20.27;10.75;;;14.70;97.10;;;;;;5036796;28;20044;-72
2022/10/13 07:39:55;;;;;;;19.73;10.88;;;14.70;96.90;;;;;;5038135;28;20042;-72
2022/10/13 07:42:24;;;;;;;17.33;10.00;;;14.70;96.90;;;;;;5049147;28;20022;-72
2022/10/13 07:44:49;;;;;;;18.75;11.55;;;14.70;97.10;;;;;;5035797;28;20025;-72
2022/10/13 07:47:15;;;;;;;20.92;11.98;;;14.70;97.30;;;;;;5043302;28;20373;-72
2022/10/13 07:49:40;;;;;;;22.02;11.10;;;14.60;97.40;;;;;;5034670;28;20025;-74
2022/10/13 07:52:06;;;;;;;22.05;12.80;;;14.60;97.50;;;;;;5073424;28;20029;-74
2022/10/13 07:54:32;;;;;;;17.50;10.88;;;14.60;97.50;;;;;;5036262;28;20022;-71
2022/10/13 07:56:57;;;;;;;22.67;11.13;;;14.70;97.60;;;;;;5043368;28;20029;-73
2022/10/13 07:59:23;;;;;;;18.48;10.63;;;14.70;97.50;;;;;;5034863;28;20032;-73
2022/10/13 08:01:48;;;;;;;16.88;10.75;;;14.70;97.50;;;;;;5035262;28;20041;-72
2022/10/13 08:04:14;;;;;;;21.05;10.77;;;14.70;97.50;;;;;;5035341;28;20051;-73
2022/10/13 08:06:41;;;;;;;18.83;10.70;;;14.70;97.50;;;;;;5034963;28;20385;-71
2022/10/13 08:09:07;;;;;;;17.08;9.95;;;14.70;97.50;;;;;;5034358;28;20449;-72
2022/10/13 08:11:33;;;;;;;21.20;10.25;;;14.70;97.40;;;;;;5034906;28;20030;-72
2022/10/13 08:14:00;;;;;;;20.55;11.35;;;14.70;97.40;;;;;;5035253;28;20052;-72
2022/10/13 08:16:29;;;;;;;18.70;11.02;;;14.70;97.20;;;;;;5034813;28;20026;-72
2022/10/13 08:18:57;;;;;;;19.50;10.73;;;14.70;97.30;;;;;;5035139;28;20030;-73
2022/10/13 08:21:23;;;;;;;21.10;11.00;;;14.70;97.20;;;;;;5035494;28;20436;-72
2022/10/13 08:23:51;;;;;;;18.98;10.13;;;14.70;97.20;;;;;;5034518;28;20026;-72
2022/10/13 08:26:21;;;;;;;23.52;10.60;;;14.80;97.20;;;;;;5034687;28;20083;-73
2022/10/13 08:28:46;;;;;;;17.65;11.15;;;14.80;97.20;;;;;;5034515;28;20046;-73
2022/10/13 08:31:15;;;;;;;16.48;10.30;;;14.90;97.20;;;;;;5039416;28;20520;-73
2022/10/13 08:33:41;;;;;;;19.33;10.57;;;14.90;97.30;;;;;;5054264;28;20025;-73
2022/10/13 08:36:07;;;;;;;21.67;11.23;;;14.90;97.20;;;;;;5054669;28;20025;-72
2022/10/13 08:38:34;;;;;;;22.33;11.50;;;14.90;97.20;;;;;;5054501;28;20029;-72
2022/10/13 08:41:00;;;;;;;24.15;12.35;;;15.00;97.20;;;;;;5054433;28;20434;-73
2022/10/13 08:43:26;;;;;;;20.90;11.43;;;15.00;97.10;;;;;;5054604;28;20025;-73
2022/10/13 08:45:59;;;;;;;21.40;11.73;;;15.00;97.10;;;;;;5054535;28;20107;-73
2022/10/13 08:48:31;;;;;;;20.63;11.10;;;15.00;97.10;;;;;;5054291;28;20073;-73
2022/10/13 08:51:00;;;;;;;15.38;9.88;;;14.90;97.10;;;;;;5054274;28;20028;-73
2022/10/13 08:53:35;;;;;;;22.63;11.32;;;14.90;97.10;;;;;;5046491;28;20551;-74
2022/10/13 08:56:20;;;;;;;20.80;12.13;;;15.00;97.20;;;;;;5034164;28;20489;-74
2022/10/13 08:58:48;;;;;;;23.08;11.70;;;15.00;97.20;;;;;;5043269;28;20425;-74
2022/10/13 09:01:27;;;;;;;19.95;10.93;;;14.90;97.10;;;;;;5033449;28;20104;-72
2022/10/13 09:04:20;;;;;;;20.10;11.95;;;14.90;97.10;;;;;;5033763;28;20097;-74
2022/10/13 09:06:53;;;;;;;21.63;12.57;;;15.00;97.20;;;;;;5034006;28;20063;-74
2022/10/13 09:09:19;;;;;;;15.43;10.77;;;15.00;97.10;;;;;;5034214;28;20117;-74
2022/10/13 09:11:47;;;;;;;21.30;12.60;;;15.00;97.10;;;;;;5033432;28;20040;-73
2022/10/13 09:14:31;;;;;;;23.02;11.77;;;15.00;97.00;;;;;;5033816;28;20079;-73
2022/10/13 09:17:11;;;;;;;26.10;12.70;;;15.00;97.10;;;;;;5033588;28;20025;-73
2022/10/13 09:19:39;;;;;;;17.60;11.63;;;15.10;97.00;;;;;;5033571;28;20028;-73
2022/10/13 09:22:26;;;;;;;25.38;13.02;;;15.10;97.20;;;;;;5033453;28;20033;-73
2022/10/13 09:25:06;;;;;;;17.90;11.30;;;15.30;97.00;;;;;;5033963;28;20042;-73
2022/10/13 09:27:49;;;;;;;22.60;12.88;;;15.40;96.90;;;;;;5033354;28;20056;-72
2022/10/13 09:30:39;;;;;;;22.15;12.02;;;15.50;96.80;;;;;;5033465;28;20061;-73
2022/10/13 09:33:17;;;;;;;19.92;11.00;;;15.50;96.80;;;;;;5033346;28;20477;-73
2022/10/13 09:36:06;;;;;;;22.08;11.18;;;15.60;96.60;;;;;;5033514;28;20443;-73
2022/10/13 09:38:33;;;;;;;20.60;11.25;;;15.70;96.50;;;;;;5032905;28;20040;-73
2022/10/13 09:41:03;;;;;;;22.27;11.65;;;15.70;96.40;;;;;;5033573;28;20069;-73
2022/10/13 09:43:31;;;;;;;20.90;11.23;;;15.70;96.40;;;;;;5033630;28;20029;-73
2022/10/13 09:45:58;;;;;;;21.88;11.40;;;15.70;96.40;;;;;;5033417;28;20112;-72
2022/10/13 09:48:29;;;;;;;23.17;11.30;;;15.80;96.40;;;;;;5033340;28;20025;-72
2022/10/13 09:50:56;;;;;;;20.67;11.85;;;15.80;96.40;;;;;;5033112;28;20385;-73
2022/10/13 09:53:31;;;;;;;22.08;12.52;;;15.80;96.20;;;;;;5033445;28;20056;-73
2022/10/13 09:56:21;;;;;;;19.15;10.73;;;15.80;96.40;;;;;;5034692;28;20432;-72
2022/10/13 09:58:56;;;;;;;18.95;10.93;;;15.80;96.50;;;;;;5033321;28;20060;-72
2022/10/13 10:01:31;;;;;;;23.73;11.70;;;15.80;96.50;;;;;;5035172;28;20064;-72
2022/10/13 10:03:57;;;;;;;19.73;11.05;;;15.80;96.40;;;;;;5047271;28;20025;-72
2022/10/13 10:06:23;;;;;;;21.73;12.27;;;15.80;96.50;;;;;;5040733;28;20055;-72
2022/10/13 10:09:02;;;;;;;17.20;10.73;;;15.80;96.40;;;;;;5033269;28;20018;-73
2022/10/13 10:11:40;;;;;;;21.38;12.57;;;15.80;96.30;;;;;;5032792;28;20365;-74
2022/10/13 10:14:24;;;;;;;18.50;11.38;;;15.90;96.30;;;;;;5033301;28;20036;-74
2022/10/13 10:17:08;;;;;;;21.08;11.02;;;15.90;96.30;;;;;;5032867;28;20084;-73
2022/10/13 10:19:46;;;;;;;19.83;11.38;;;15.90;96.30;;;;;;5032861;28;20033;-72
2022/10/13 10:22:18;;;;;;;21.15;12.52;;;16.00;96.20;;;;;;5032834;28;20557;-73
2022/10/13 10:25:05;;;;;;;19.35;10.77;;;16.00;96.20;;;;;;5032567;28;20091;-73
2022/10/13 10:27:59;;;;;;;19.50;11.30;;;15.90;96.20;;;;;;5038506;28;20481;-72
2022/10/13 10:30:29;;;;;;;24.95;10.35;;;16.00;96.30;;;;;;5032909;28;20076;-73
2022/10/13 10:32:55;;;;;;;22.60;11.32;;;16.00;96.30;;;;;;5042225;28;20028;-73
2022/10/13 10:35:57;;;;;;;17.63;11.10;;;16.00;96.30;;;;;;5044371;28;20021;-73
2022/10/13 10:38:49;;;;;;;17.05;10.10;;;16.00;96.30;;;;;;5043877;28;20037;-73
2022/10/13 10:41:40;;;;;;;17.10;10.18;;;16.00;96.30;;;;;;5050225;28;20068;-72
2022/10/13 10:44:20;;;;;;;18.27;10.50;;;16.00;96.40;;;;;;5054868;28;20431;-73
2022/10/13 10:46:48;;;;;;;17.85;10.15;;;16.00;96.40;;;;;;5054379;28;20052;-73
2022/10/13 10:49:25;;;;;;;20.33;10.05;;;16.00;96.40;;;;;;5030006;28;20037;-72
2022/10/13 10:51:52;;;;;;;25.85;11.52;;;16.00;96.60;;;;;;5042813;28;20031;-73
2022/10/13 10:54:25;;;;;;;19.63;10.40;;;16.00;96.50;;;;;;5036609;28;20108;-74
2022/10/13 10:57:03;;;;;;;17.48;10.13;;;16.00;96.60;;;;;;5049664;28;20179;-73
2022/10/13 10:59:45;;;;;;;18.80;11.60;;;16.10;96.70;;;;;;5056325;28;20112;-73
2022/10/13 11:02:32;;;;;;;24.48;10.50;;;16.00;96.70;;;;;;5046586;28;20033;-73
2022/10/13 11:05:01;;;;;;;17.52;9.95;;;16.10;97.00;;;;;;5056369;28;20025;-73
2022/10/13 11:07:27;;;;;;;17.85;10.38;;;16.00;96.70;;;;;;5048951;28;20021;-73
2022/10/13 11:09:56;;;;;;;18.63;9.18;;;16.10;96.80;;;;;;5042476;28;20043;-72
2022/10/13 11:12:21;;;;;;;17.45;10.65;;;16.10;96.80;;;;;;5036481;28;20022;-74
2022/10/13 11:14:52;;;;;;;19.88;11.05;;;16.10;96.90;;;;;;5037309;28;20029;-71
2022/10/13 11:17:25;;;;;;;21.83;10.93;;;16.00;96.90;;;;;;5037135;28;20022;-70
2022/10/13 11:19:51;;;;;;;21.80;12.20;;;15.90;97.10;;;;;;5036741;28;20032;-72
2022/10/13 11:22:19;;;;;;;21.42;12.35;;;15.90;97.40;;;;;;5040313;28;20104;-74
2022/10/13 11:24:51;;;;;;;23.85;12.13;;;15.90;97.50;;;;;;5048769;28;20038;-73
2022/10/13 11:27:16;;;;;;;23.35;12.98;;;15.80;97.80;;;;;;5036979;28;20121;-74
2022/10/13 11:29:42;;;;;;;22.45;14.68;;;15.80;98.00;;;;;;5039216;28;20460;-73
2022/10/13 11:32:31;;;;;;;23.42;13.48;;;15.70;98.30;;;;;;5036818;28;20025;-74
2022/10/13 11:34:57;;;;;;;20.90;12.98;;;15.70;98.40;;;;;;5032744;28;20033;-74
2022/10/13 11:37:29;;;;;;;26.73;14.18;;;15.70;98.40;;;;;;5035865;28;20017;-74
2022/10/13 11:40:20;;;;;;;22.13;12.43;;;15.60;98.60;;;;;;5035706;28;20060;-76
2022/10/13 11:43:08;;;;;;;22.23;13.48;;;15.60;98.70;;;;;;5034509;28;20436;-75
2022/10/13 11:45:49;;;;;;;19.75;13.32;;;15.60;98.80;;;;;;5034504;28;20026;-75
2022/10/13 11:48:47;;;;;;;21.30;12.70;;;15.60;98.90;;;;;;5035775;28;20037;-75
2022/10/13 11:51:49;;;;;;;22.10;12.82;;;15.60;99.10;;;;;;5033716;28;20053;-72
2022/10/13 11:54:54;;;;;;;20.50;12.07;;;15.60;99.30;;;;;;5035515;28;20040;-74
2022/10/13 11:57:31;;;;;;;20.10;13.27;;;15.70;99.10;;;;;;5033822;28;20141;-74
2022/10/13 11:59:57;;;;;;;21.77;14.38;;;15.70;99.20;;;;;;5035405;28;20038;-74
2022/10/13 12:02:25;;;;;;;20.73;12.60;;;15.70;99.30;;;;;;5034880;28;20022;-74
2022/10/13 12:05:18;;;;;;;27.90;15.85;;;15.70;99.40;;;;;;5035004;28;20040;-75
2022/10/13 12:07:46;;;;;;;26.60;14.02;;;15.60;99.30;;;;;;5035042;28;20160;-74
2022/10/13 12:10:28;;;;;;;22.60;14.57;;;15.60;99.30;;;;;;5035008;28;20043;-73
2022/10/13 12:12:54;;;;;;;20.92;13.10;;;15.60;99.30;;;;;;5034894;28;20028;-74
2022/10/13 12:15:35;;;;;;;21.45;13.25;;;15.60;99.30;;;;;;5034877;28;20033;-74
2022/10/13 12:18:02;;;;;;;21.55;13.77;;;15.60;99.60;;;;;;5035801;28;20503;-74
2022/10/13 12:20:30;;;;;;;23.42;13.18;;;15.60;99.30;;;;;;5035113;28;20397;-74
2022/10/13 12:22:56;;;;;;;22.40;13.20;;;15.70;99.40;;;;;;5035208;28;20045;-75
2022/10/13 12:25:25;;;;;;;21.85;12.48;;;15.60;99.40;;;;;;5034755;28;20029;-74
2022/10/13 12:27:54;;;;;;;22.38;13.00;;;15.70;99.40;;;;;;5034729;28;20041;-71
2022/10/13 12:30:21;;;;;;;19.27;12.18;;;15.70;99.30;;;;;;5034313;28;20057;-75
2022/10/13 12:32:52;;;;;;;21.13;12.85;;;15.60;99.30;;;;;;5034729;28;20056;-73
2022/10/13 12:35:19;;;;;;;21.67;12.32;;;15.70;99.20;;;;;;5034507;28;20064;-71
2022/10/13 12:37:46;;;;;;;22.80;12.88;;;15.70;99.20;;;;;;5034840;28;20087;-72
2022/10/13 12:40:14;;;;;;;20.80;12.25;;;15.60;99.20;;;;;;5034791;28;20025;-71
2022/10/13 12:42:41;;;;;;;18.15;12.55;;;15.60;99.30;;;;;;5035352;28;20033;-70
2022/10/13 12:45:12;;;;;;;18.58;12.48;;;15.60;99.30;;;;;;5035456;28;20393;-70
2022/10/13 12:47:46;;;;;;;16.98;11.98;;;15.60;99.30;;;;;;5034378;28;20057;-71
2022/10/13 12:50:24;;;;;;;23.05;11.77;;;15.70;99.60;;;;;;5037153;28;20029;-71